Time;durP1;ratioP1;P1;durP2;ratioP2;P2;SDS_P1;SDS_P2;PMS_P1;PMS_P2;Temp;Humidity;BMP_temperature;BMP_pressure;BME280_temperature;BME280_humidity;BME280_pressure;Samples;Min_cycle;Max_cycle;Signal;HPM_P1;HPM_P2
2023/09/25 00:01:02;;;;;;;6.03;2.45;;;;;;;;;;4992110;28;25159;-73
2023/09/25 00:03:28;;;;;;;3.88;2.17;;;;;;;;;;4988351;28;25074;-72
2023/09/25 00:05:54;;;;;;;3.85;1.92;;;;;;;;;;4986554;28;25080;-69
2023/09/25 00:08:20;;;;;;;6.85;2.88;;;;;;;;;;4988700;28;25056;-71
2023/09/25 00:10:46;;;;;;;4.57;2.33;;;;;;;;;;4988318;28;25059;-69
2023/09/25 00:13:12;;;;;;;4.97;2.30;;;;;;;;;;4990540;28;25046;-70
2023/09/25 00:15:43;;;;;;;5.18;2.47;;;;;;;;;;4995660;28;25060;-70
2023/09/25 00:18:09;;;;;;;4.07;2.30;;;;;;;;;;4985326;28;25063;-70
2023/09/25 00:20:35;;;;;;;6.40;2.10;;;;;;;;;;4987183;28;25095;-69
2023/09/25 00:23:01;;;;;;;6.00;2.58;;;;;;;;;;4989747;28;25084;-71
2023/09/25 00:25:28;;;;;;;3.17;2.05;;;;;;;;;;4982265;28;25062;-71
2023/09/25 00:27:54;;;;;;;4.22;1.88;;;;;;;;;;4983778;28;25073;-69
2023/09/25 00:30:20;;;;;;;6.60;2.47;;;;;;;;;;4986579;28;25059;-69
2023/09/25 00:32:46;;;;;;;3.25;2.33;;;;;;;;;;4989738;28;25115;-73
2023/09/25 00:35:13;;;;;;;4.15;2.30;;;;;;;;;;4995285;28;25085;-69
2023/09/25 00:37:39;;;;;;;6.50;2.15;;;;;;;;;;4990115;28;25064;-72
2023/09/25 00:40:21;;;;;;;4.72;2.45;;;;;;;;;;4983178;28;25055;-70
2023/09/25 00:42:48;;;;;;;6.63;2.30;;;;;;;;;;4973434;28;25122;-70
2023/09/25 00:45:14;;;;;;;3.13;2.20;;;;;;;;;;4988667;28;25110;-72
2023/09/25 00:47:42;;;;;;;2.85;2.30;;;;;;;;;;4969229;28;25096;-73
2023/09/25 00:50:09;;;;;;;5.78;2.53;;;;;;;;;;4982681;28;25054;-71
2023/09/25 00:52:36;;;;;;;4.03;2.20;;;;;;;;;;4966295;28;25060;-72
2023/09/25 00:55:04;;;;;;;5.15;2.33;;;;;;;;;;4988136;28;25068;-73
2023/09/25 00:57:30;;;;;;;5.72;2.30;;;;;;;;;;4980017;28;25047;-72
2023/09/25 00:59:56;;;;;;;3.88;2.70;;;;;;;;;;4986947;28;25109;-73
2023/09/25 01:02:22;;;;;;;5.07;2.15;;;;;;;;;;4982830;28;25064;-74
2023/09/25 01:04:49;;;;;;;4.88;2.38;;;;;;;;;;4982684;28;25071;-70
2023/09/25 01:07:18;;;;;;;4.80;2.53;;;;;;;;;;4988914;28;25079;-71
2023/09/25 01:10:04;;;;;;;3.85;2.42;;;;;;;;;;4992712;28;25058;-74
2023/09/25 01:12:30;;;;;;;3.05;2.45;;;;;;;;;;4990697;28;25059;-72
2023/09/25 01:14:56;;;;;;;4.32;2.10;;;;;;;;;;4984372;28;25136;-69
2023/09/25 01:17:22;;;;;;;4.05;2.38;;;;;;;;;;4979407;28;25082;-71
2023/09/25 01:19:48;;;;;;;7.55;2.72;;;;;;;;;;4985095;28;25067;-74
2023/09/25 01:22:14;;;;;;;3.58;2.47;;;;;;;;;;4986309;28;25092;-70
2023/09/25 01:24:40;;;;;;;5.03;2.45;;;;;;;;;;4984577;28;25071;-71
2023/09/25 01:27:06;;;;;;;4.97;2.65;;;;;;;;;;4985670;28;25075;-69
2023/09/25 01:29:32;;;;;;;7.28;2.75;;;;;;;;;;4990886;28;25053;-70
2023/09/25 01:31:58;;;;;;;6.32;2.42;;;;;;;;;;4992118;28;25074;-71
2023/09/25 01:34:25;;;;;;;3.67;1.90;;;;;;;;;;4985445;28;25127;-72
2023/09/25 01:36:51;;;;;;;5.30;2.38;;;;;;;;;;4987134;28;25075;-71
2023/09/25 01:39:17;;;;;;;5.60;2.38;;;;;;;;;;4983935;28;25073;-71
2023/09/25 01:41:43;;;;;;;4.35;2.45;;;;;;;;;;4984812;28;25082;-70
2023/09/25 01:44:08;;;;;;;3.95;1.90;;;;;;;;;;4964436;28;25069;-71
2023/09/25 01:46:35;;;;;;;4.10;2.50;;;;;;;;;;4990787;28;25089;-72
2023/09/25 01:49:01;;;;;;;3.67;2.38;;;;;;;;;;4986616;28;25147;-72
2023/09/25 01:51:27;;;;;;;3.53;2.50;;;;;;;;;;4990125;28;29604;-74
2023/09/25 01:53:53;;;;;;;3.92;2.08;;;;;;;;;;4993276;28;25104;-72
2023/09/25 01:56:19;;;;;;;4.35;2.10;;;;;;;;;;4989261;28;25072;-74
2023/09/25 01:58:45;;;;;;;7.03;2.28;;;;;;;;;;4987165;28;25067;-74
2023/09/25 02:01:11;;;;;;;3.38;2.33;;;;;;;;;;4981041;28;25063;-72
2023/09/25 02:03:37;;;;;;;6.47;2.67;;;;;;;;;;4991258;28;25187;-71
2023/09/25 02:06:04;;;;;;;4.45;2.00;;;;;;;;;;4988576;28;25081;-72
2023/09/25 02:08:31;;;;;;;11.13;2.55;;;;;;;;;;4984341;28;25097;-73
2023/09/25 02:10:57;;;;;;;2.67;1.98;;;;;;;;;;4982038;28;25052;-73
2023/09/25 02:13:23;;;;;;;4.50;2.30;;;;;;;;;;4990098;28;25068;-72
2023/09/25 02:15:49;;;;;;;5.75;2.40;;;;;;;;;;4981851;28;25056;-73
2023/09/25 02:18:15;;;;;;;4.72;2.30;;;;;;;;;;4982084;28;25084;-71
2023/09/25 02:20:41;;;;;;;3.92;2.95;;;;;;;;;;4985325;28;25063;-71
2023/09/25 02:23:07;;;;;;;4.90;2.78;;;;;;;;;;4985368;28;25180;-73
2023/09/25 02:25:33;;;;;;;4.82;2.47;;;;;;;;;;4967324;28;25052;-71
2023/09/25 02:27:59;;;;;;;5.05;2.58;;;;;;;;;;4982193;28;25058;-71
2023/09/25 02:30:25;;;;;;;2.83;2.15;;;;;;;;;;4971173;28;25057;-73
2023/09/25 02:32:51;;;;;;;3.88;2.13;;;;;;;;;;4982956;28;25066;-74
2023/09/25 02:35:17;;;;;;;4.63;2.45;;;;;;;;;;4986798;28;25149;-72
2023/09/25 02:37:44;;;;;;;4.72;2.25;;;;;;;;;;4989434;28;25059;-72
2023/09/25 02:40:14;;;;;;;3.65;2.28;;;;;;;;;;4993390;28;25050;-72
2023/09/25 02:42:40;;;;;;;3.67;2.35;;;;;;;;;;4994591;28;25071;-71
2023/09/25 02:45:07;;;;;;;4.82;2.42;;;;;;;;;;4990801;28;25064;-71
2023/09/25 02:47:33;;;;;;;5.63;2.35;;;;;;;;;;4998842;28;25078;-71
2023/09/25 02:49:59;;;;;;;4.60;2.42;;;;;;;;;;4985230;28;25112;-69
2023/09/25 02:52:25;;;;;;;3.65;2.38;;;;;;;;;;4982076;28;25093;-70
2023/09/25 02:54:51;;;;;;;3.53;2.30;;;;;;;;;;4982826;28;25056;-73
2023/09/25 02:57:17;;;;;;;4.13;2.25;;;;;;;;;;4979631;28;25089;-71
2023/09/25 02:59:43;;;;;;;6.95;2.60;;;;;;;;;;4999051;28;25116;-69
2023/09/25 03:02:09;;;;;;;8.68;3.20;;;;;;;;;;4989924;28;25069;-72
2023/09/25 03:04:37;;;;;;;3.67;2.65;;;;;;;;;;4993205;28;25082;-71
2023/09/25 03:07:03;;;;;;;6.43;2.97;;;;;;;;;;4991674;28;25059;-74
2023/09/25 03:09:29;;;;;;;4.13;2.30;;;;;;;;;;4991503;28;25109;-68
2023/09/25 03:11:55;;;;;;;7.72;2.42;;;;;;;;;;4990210;28;25113;-70
2023/09/25 03:14:22;;;;;;;4.43;2.55;;;;;;;;;;4990065;28;25079;-73
2023/09/25 03:16:48;;;;;;;2.55;2.17;;;;;;;;;;4993182;28;25075;-72
2023/09/25 03:19:14;;;;;;;6.13;3.20;;;;;;;;;;4989770;28;25066;-71
2023/09/25 03:21:44;;;;;;;6.07;2.60;;;;;;;;;;4986075;28;25140;-72
2023/09/25 03:24:10;;;;;;;6.10;2.15;;;;;;;;;;4978378;28;25061;-70
2023/09/25 03:26:37;;;;;;;5.57;2.65;;;;;;;;;;4986823;28;25096;-71
2023/09/25 03:29:04;;;;;;;5.68;2.45;;;;;;;;;;4984452;28;25062;-70
2023/09/25 03:31:31;;;;;;;8.00;2.75;;;;;;;;;;4959728;28;25130;-68
2023/09/25 03:33:57;;;;;;;4.95;2.42;;;;;;;;;;4985390;28;25073;-70
2023/09/25 03:36:23;;;;;;;5.65;2.95;;;;;;;;;;4987553;28;25140;-70
2023/09/25 03:38:49;;;;;;;6.18;2.78;;;;;;;;;;4985207;28;25106;-70
2023/09/25 03:41:15;;;;;;;3.67;2.60;;;;;;;;;;4984271;28;25058;-71
2023/09/25 03:43:41;;;;;;;3.30;2.15;;;;;;;;;;4978087;28;25061;-71
2023/09/25 03:46:07;;;;;;;6.30;2.70;;;;;;;;;;4988209;28;25072;-73
2023/09/25 03:48:33;;;;;;;5.97;2.70;;;;;;;;;;4985847;28;25087;-70
2023/09/25 03:50:59;;;;;;;4.43;2.40;;;;;;;;;;4985596;28;25102;-70
2023/09/25 03:53:25;;;;;;;2.80;2.15;;;;;;;;;;4983623;28;25052;-69
2023/09/25 03:55:51;;;;;;;5.25;2.40;;;;;;;;;;4985349;28;25125;-72
2023/09/25 03:58:18;;;;;;;4.57;2.45;;;;;;;;;;4995794;28;25066;-70
2023/09/25 04:00:44;;;;;;;6.70;2.95;;;;;;;;;;4981835;28;25061;-69
2023/09/25 04:03:10;;;;;;;5.80;2.53;;;;;;;;;;4975412;28;25042;-70
2023/09/25 04:05:36;;;;;;;5.38;2.75;;;;;;;;;;4986212;28;25077;-71
2023/09/25 04:08:03;;;;;;;6.32;2.95;;;;;;;;;;4967348;28;25159;-69
2023/09/25 04:10:29;;;;;;;5.22;2.60;;;;;;;;;;4994514;28;26205;-70
2023/09/25 04:12:55;;;;;;;4.95;2.92;;;;;;;;;;4982096;28;25140;-71
2023/09/25 04:15:23;;;;;;;4.72;2.40;;;;;;;;;;4980039;28;25090;-70
2023/09/25 04:17:52;;;;;;;5.50;2.75;;;;;;;;;;4988340;28;25066;-73
2023/09/25 04:20:25;;;;;;;2.65;1.98;;;;;;;;;;4982944;28;25071;-73
2023/09/25 04:22:52;;;;;;;5.25;2.72;;;;;;;;;;4987174;28;25077;-73
2023/09/25 04:25:21;;;;;;;8.65;2.47;;;;;;;;;;4978648;28;25094;-72
2023/09/25 04:27:48;;;;;;;4.07;2.40;;;;;;;;;;4981738;28;25075;-71
2023/09/25 04:30:14;;;;;;;6.50;3.25;;;;;;;;;;4985915;28;25068;-72
2023/09/25 04:32:43;;;;;;;4.20;2.15;;;;;;;;;;4987379;28;25166;-71
2023/09/25 04:35:11;;;;;;;4.22;2.63;;;;;;;;;;4985331;28;25049;-70
2023/09/25 04:37:37;;;;;;;3.58;2.60;;;;;;;;;;4987290;28;25074;-71
2023/09/25 04:40:10;;;;;;;6.53;2.47;;;;;;;;;;4966399;28;25063;-71
2023/09/25 04:42:37;;;;;;;4.43;2.50;;;;;;;;;;4993393;28;25066;-69
2023/09/25 04:45:03;;;;;;;6.00;2.83;;;;;;;;;;4969805;28;25073;-70
2023/09/25 04:47:29;;;;;;;4.22;2.33;;;;;;;;;;4989866;28;25108;-73
2023/09/25 04:49:55;;;;;;;6.78;2.50;;;;;;;;;;4990013;28;25074;-71
2023/09/25 04:52:23;;;;;;;4.05;2.45;;;;;;;;;;4994078;28;25083;-71
2023/09/25 04:54:49;;;;;;;3.38;2.40;;;;;;;;;;4978613;28;25056;-69
2023/09/25 04:57:15;;;;;;;4.10;1.98;;;;;;;;;;4995042;28;25090;-70
2023/09/25 04:59:42;;;;;;;4.20;2.15;;;;;;;;;;4989544;28;25078;-69
2023/09/25 05:02:07;;;;;;;4.65;2.70;;;;;;;;;;4983636;28;25067;-70
2023/09/25 05:04:36;;;;;;;7.05;2.50;;;;;;;;;;4983223;28;25086;-70
2023/09/25 05:07:02;;;;;;;3.22;2.38;;;;;;;;;;4979766;28;25085;-69
2023/09/25 05:09:28;;;;;;;5.18;2.63;;;;;;;;;;4965907;28;25076;-69
2023/09/25 05:11:54;;;;;;;4.68;2.55;;;;;;;;;;4969053;28;25066;-71
2023/09/25 05:14:20;;;;;;;3.97;2.70;;;;;;;;;;4985959;28;25051;-74
2023/09/25 05:16:46;;;;;;;5.88;2.80;;;;;;;;;;4984816;28;25064;-69
2023/09/25 05:19:13;;;;;;;4.57;2.22;;;;;;;;;;4979700;28;25144;-71
2023/09/25 05:21:39;;;;;;;7.35;2.53;;;;;;;;;;4977646;28;25104;-69
2023/09/25 05:24:05;;;;;;;4.43;2.13;;;;;;;;;;4974140;28;25089;-71
2023/09/25 05:26:36;;;;;;;3.70;2.53;;;;;;;;;;4962095;28;25167;-72
2023/09/25 05:29:02;;;;;;;7.28;2.33;;;;;;;;;;4977408;28;25083;-71
2023/09/25 05:31:28;;;;;;;5.20;2.58;;;;;;;;;;4985153;28;25073;-71
2023/09/25 05:33:54;;;;;;;6.25;2.35;;;;;;;;;;4985944;28;25136;-71
2023/09/25 05:36:20;;;;;;;5.32;2.70;;;;;;;;;;4989536;28;25056;-69
2023/09/25 05:38:46;;;;;;;4.45;2.40;;;;;;;;;;4985744;28;25132;-70
2023/09/25 05:41:12;;;;;;;3.78;2.53;;;;;;;;;;4978269;28;25068;-72
2023/09/25 05:43:39;;;;;;;2.88;2.20;;;;;;;;;;4981481;28;25150;-70
2023/09/25 05:46:05;;;;;;;5.57;2.40;;;;;;;;;;4975928;28;25066;-71
2023/09/25 05:48:31;;;;;;;5.75;2.58;;;;;;;;;;4981489;28;25066;-71
2023/09/25 05:50:59;;;;;;;7.38;2.70;;;;;;;;;;4988954;28;25080;-70
2023/09/25 05:53:25;;;;;;;4.10;1.95;;;;;;;;;;4961270;28;25065;-71
2023/09/25 05:55:51;;;;;;;5.32;2.50;;;;;;;;;;4990504;28;25128;-72
2023/09/25 05:58:17;;;;;;;5.40;2.00;;;;;;;;;;4973927;28;25045;-71
2023/09/25 06:00:46;;;;;;;4.55;2.67;;;;;;;;;;4986347;28;25090;-71
2023/09/25 06:03:13;;;;;;;3.40;2.10;;;;;;;;;;4989353;28;25162;-72
2023/09/25 06:05:39;;;;;;;7.00;2.83;;;;;;;;;;4993145;28;25070;-72
2023/09/25 06:08:06;;;;;;;6.28;2.75;;;;;;;;;;4973439;28;25071;-70
2023/09/25 06:10:32;;;;;;;4.97;2.03;;;;;;;;;;4982258;28;25094;-73
2023/09/25 06:12:59;;;;;;;9.65;2.60;;;;;;;;;;4979203;28;25145;-71
2023/09/25 06:15:26;;;;;;;4.28;2.35;;;;;;;;;;4990052;28;25071;-73
2023/09/25 06:17:52;;;;;;;4.47;2.00;;;;;;;;;;4980710;28;25073;-74
2023/09/25 06:20:20;;;;;;;5.07;2.67;;;;;;;;;;4991957;28;25147;-73
2023/09/25 06:22:46;;;;;;;5.40;2.80;;;;;;;;;;4977755;28;25181;-73
2023/09/25 06:25:16;;;;;;;4.75;2.60;;;;;;;;;;4988043;28;25047;-71
2023/09/25 06:27:44;;;;;;;3.90;2.15;;;;;;;;;;4974695;28;25076;-72
2023/09/25 06:30:10;;;;;;;7.80;2.97;;;;;;;;;;4987125;28;25133;-71
2023/09/25 06:32:37;;;;;;;8.27;2.58;;;;;;;;;;4984273;28;25071;-72
2023/09/25 06:35:03;;;;;;;8.18;2.42;;;;;;;;;;5003764;28;25075;-74
2023/09/25 06:37:30;;;;;;;4.65;2.60;;;;;;;;;;4992036;28;25089;-71
2023/09/25 06:39:56;;;;;;;4.82;2.70;;;;;;;;;;4994382;28;25065;-71
2023/09/25 06:42:22;;;;;;;6.97;2.83;;;;;;;;;;4978051;28;25063;-71
2023/09/25 06:44:48;;;;;;;4.13;2.38;;;;;;;;;;4985765;28;25057;-71
2023/09/25 06:47:15;;;;;;;7.95;2.75;;;;;;;;;;4990348;28;25140;-71
2023/09/25 06:49:41;;;;;;;6.18;2.55;;;;;;;;;;4991919;28;25061;-74
2023/09/25 06:52:07;;;;;;;4.55;2.50;;;;;;;;;;4971181;28;25099;-72
2023/09/25 06:54:33;;;;;;;5.93;2.45;;;;;;;;;;4984785;28;25062;-77
2023/09/25 06:56:59;;;;;;;5.82;2.22;;;;;;;;;;4996550;28;25125;-71
2023/09/25 06:59:26;;;;;;;5.93;2.67;;;;;;;;;;4984371;28;25063;-72
2023/09/25 07:01:52;;;;;;;5.68;2.17;;;;;;;;;;4982209;28;25078;-72
2023/09/25 07:04:19;;;;;;;6.35;2.40;;;;;;;;;;4987045;28;25148;-70
2023/09/25 07:06:45;;;;;;;3.65;2.03;;;;;;;;;;4980612;28;25088;-70
2023/09/25 07:09:14;;;;;;;4.57;2.40;;;;;;;;;;4985070;28;25140;-75
2023/09/25 07:11:41;;;;;;;4.22;2.17;;;;;;;;;;4977653;28;25127;-73
2023/09/25 07:14:07;;;;;;;6.63;2.13;;;;;;;;;;4972756;28;25124;-71
2023/09/25 07:16:35;;;;;;;4.18;2.38;;;;;;;;;;4977817;28;25066;-71
2023/09/25 07:19:00;;;;;;;4.18;2.05;;;;;;;;;;4984204;28;25106;-74
2023/09/25 07:21:27;;;;;;;9.43;2.60;;;;;;;;;;4983941;28;25090;-71
2023/09/25 07:23:53;;;;;;;4.70;2.75;;;;;;;;;;4987773;28;25100;-70
2023/09/25 07:26:19;;;;;;;5.40;2.28;;;;;;;;;;4990635;28;25068;-74
2023/09/25 07:28:48;;;;;;;4.95;1.85;;;;;;;;;;4992292;28;25056;-73
2023/09/25 07:31:24;;;;;;;4.68;2.30;;;;;;;;;;4999188;28;25051;-73
2023/09/25 07:33:52;;;;;;;3.67;2.22;;;;;;;;;;4992047;28;25046;-73
2023/09/25 07:36:20;;;;;;;4.57;2.20;;;;;;;;;;4993143;28;25070;-73
2023/09/25 07:38:46;;;;;;;4.93;2.47;;;;;;;;;;4988765;28;25080;-72
2023/09/25 07:41:13;;;;;;;3.22;2.10;;;;;;;;;;4986770;28;25161;-72
2023/09/25 07:43:39;;;;;;;3.35;2.08;;;;;;;;;;4988379;28;25077;-72
2023/09/25 07:46:05;;;;;;;3.13;2.13;;;;;;;;;;4982075;28;25059;-72
2023/09/25 07:48:32;;;;;;;4.18;1.60;;;;;;;;;;4978692;28;25071;-73
2023/09/25 07:50:58;;;;;;;5.57;2.30;;;;;;;;;;4990871;28;25059;-75
2023/09/25 07:53:24;;;;;;;3.85;2.10;;;;;;;;;;4988157;28;25053;-76
2023/09/25 07:55:57;;;;;;;6.75;2.33;;;;;;;;;;4994456;28;25065;-70
2023/09/25 07:58:23;;;;;;;4.15;2.35;;;;;;;;;;4989895;28;25071;-75
2023/09/25 08:00:49;;;;;;;4.18;2.17;;;;;;;;;;4985253;28;25046;-72
2023/09/25 08:03:17;;;;;;;4.22;2.25;;;;;;;;;;4983312;28;25067;-71
2023/09/25 08:05:43;;;;;;;4.68;2.08;;;;;;;;;;4983378;28;25062;-70
2023/09/25 08:08:11;;;;;;;5.13;2.38;;;;;;;;;;4986778;28;25140;-72
2023/09/25 08:10:37;;;;;;;5.60;2.15;;;;;;;;;;4978770;28;25097;-70
2023/09/25 08:13:03;;;;;;;5.53;2.15;;;;;;;;;;4992103;28;25082;-72
2023/09/25 08:15:29;;;;;;;3.15;1.60;;;;;;;;;;4982078;28;25062;-72
2023/09/25 08:17:55;;;;;;;3.15;2.33;;;;;;;;;;4988140;28;25078;-72
2023/09/25 08:20:22;;;;;;;2.45;1.67;;;;;;;;;;4967881;28;25050;-70
2023/09/25 08:22:52;;;;;;;3.60;2.30;;;;;;;;;;4985008;28;25553;-69
2023/09/25 08:25:18;;;;;;;3.50;1.67;;;;;;;;;;4991476;28;25078;-70
2023/09/25 08:27:44;;;;;;;2.90;2.00;;;;;;;;;;4995378;28;25073;-71
2023/09/25 08:30:11;;;;;;;3.47;2.05;;;;;;;;;;4982996;28;25056;-70
2023/09/25 08:32:37;;;;;;;3.42;2.15;;;;;;;;;;4985919;28;25056;-69
2023/09/25 08:35:03;;;;;;;4.63;2.40;;;;;;;;;;4995144;28;25137;-70
2023/09/25 08:37:29;;;;;;;2.53;1.70;;;;;;;;;;4980453;28;25170;-70
2023/09/25 08:39:56;;;;;;;5.38;2.47;;;;;;;;;;4986228;28;25057;-72
2023/09/25 08:42:26;;;;;;;2.08;1.83;;;;;;;;;;4983317;28;25134;-72
2023/09/25 08:44:52;;;;;;;3.75;1.75;;;;;;;;;;4974048;28;25126;-70
2023/09/25 08:47:19;;;;;;;2.75;1.95;;;;;;;;;;4987419;28;25082;-72
2023/09/25 08:49:49;;;;;;;3.35;2.10;;;;;;;;;;4962739;28;25142;-72
2023/09/25 08:52:15;;;;;;;2.63;1.42;;;;;;;;;;4989790;28;25085;-71
2023/09/25 08:54:41;;;;;;;3.90;1.95;;;;;;;;;;4985621;28;25085;-71
2023/09/25 08:57:07;;;;;;;2.92;1.85;;;;;;;;;;4983700;28;25079;-72
2023/09/25 08:59:34;;;;;;;2.72;1.85;;;;;;;;;;4989771;28;25049;-72
2023/09/25 09:02:00;;;;;;;3.70;1.83;;;;;;;;;;4985249;28;25102;-71
2023/09/25 09:04:26;;;;;;;5.97;2.10;;;;;;;;;;4973601;28;25133;-70
2023/09/25 09:06:52;;;;;;;5.20;2.50;;;;;;;;;;4980488;28;25138;-71
2023/09/25 09:09:18;;;;;;;2.55;1.73;;;;;;;;;;4984444;28;25068;-70
2023/09/25 09:11:51;;;;;;;3.70;1.83;;;;;;;;;;4986773;28;25085;-72
2023/09/25 09:14:41;;;;;;;5.63;2.13;;;;;;;;;;4992749;28;25075;-72
2023/09/25 09:17:08;;;;;;;3.60;1.83;;;;;;;;;;4970892;28;25034;-72
2023/09/25 09:19:36;;;;;;;5.82;2.47;;;;;;;;;;4963574;28;25113;-71
2023/09/25 09:22:05;;;;;;;3.55;1.90;;;;;;;;;;4986530;28;25445;-71
2023/09/25 09:24:32;;;;;;;3.90;2.25;;;;;;;;;;4989423;28;25168;-71
2023/09/25 09:26:59;;;;;;;3.78;1.95;;;;;;;;;;4983112;28;25074;-72
2023/09/25 09:29:26;;;;;;;8.98;2.50;;;;;;;;;;4983349;28;25053;-73
2023/09/25 09:31:52;;;;;;;5.10;2.28;;;;;;;;;;4986032;28;25071;-72
2023/09/25 09:34:22;;;;;;;5.60;1.95;;;;;;;;;;4979720;28;25062;-71
2023/09/25 09:36:51;;;;;;;2.97;2.25;;;;;;;;;;4984100;28;25104;-71
2023/09/25 09:39:25;;;;;;;5.25;1.80;;;;;;;;;;4991312;28;25076;-73
2023/09/25 09:41:55;;;;;;;3.60;1.92;;;;;;;;;;4988910;28;25146;-75
2023/09/25 09:44:24;;;;;;;2.80;2.38;;;;;;;;;;4996720;28;25107;-71
2023/09/25 09:46:51;;;;;;;5.40;2.50;;;;;;;;;;4982678;28;25068;-71
2023/09/25 09:49:21;;;;;;;5.18;2.05;;;;;;;;;;4983508;28;25054;-75
2023/09/25 09:51:50;;;;;;;3.67;2.15;;;;;;;;;;4988896;28;25063;-72
2023/09/25 09:54:17;;;;;;;5.80;2.42;;;;;;;;;;4983349;28;25121;-71
2023/09/25 09:56:43;;;;;;;5.63;2.95;;;;;;;;;;4989095;28;25078;-71
2023/09/25 09:59:10;;;;;;;5.80;2.58;;;;;;;;;;4986265;28;25138;-69
2023/09/25 10:01:37;;;;;;;5.72;2.45;;;;;;;;;;4968835;28;25055;-70
2023/09/25 10:04:05;;;;;;;3.70;2.10;;;;;;;;;;4983699;28;25094;-71
2023/09/25 10:06:31;;;;;;;4.22;2.17;;;;;;;;;;4983316;28;25065;-71
2023/09/25 10:09:01;;;;;;;3.67;2.20;;;;;;;;;;4986810;28;25112;-71
2023/09/25 10:11:28;;;;;;;5.25;2.10;;;;;;;;;;4987108;28;25090;-71
2023/09/25 10:13:55;;;;;;;2.95;1.92;;;;;;;;;;4993365;28;25058;-72
2023/09/25 10:16:21;;;;;;;4.55;1.90;;;;;;;;;;4977134;28;25083;-72
2023/09/25 10:18:52;;;;;;;4.88;2.30;;;;;;;;;;4986334;28;25105;-73
2023/09/25 10:21:18;;;;;;;2.88;2.20;;;;;;;;;;4990517;28;25108;-72
2023/09/25 10:23:47;;;;;;;3.13;2.15;;;;;;;;;;4983069;28;25143;-72
2023/09/25 10:26:24;;;;;;;3.97;2.42;;;;;;;;;;4990096;28;25131;-71
2023/09/25 10:28:58;;;;;;;7.28;2.78;;;;;;;;;;4987754;28;25047;-73
2023/09/25 10:31:29;;;;;;;4.28;2.47;;;;;;;;;;4987201;28;25055;-69
2023/09/25 10:33:59;;;;;;;3.40;2.00;;;;;;;;;;4982293;28;25054;-73
2023/09/25 10:36:38;;;;;;;4.40;2.22;;;;;;;;;;4988047;28;25050;-71
2023/09/25 10:39:08;;;;;;;7.20;2.53;;;;;;;;;;4991593;28;25098;-74
2023/09/25 10:41:34;;;;;;;5.20;2.25;;;;;;;;;;4988865;28;25057;-72
2023/09/25 10:44:00;;;;;;;7.20;2.85;;;;;;;;;;4984159;28;25368;-69
2023/09/25 10:46:26;;;;;;;5.88;3.42;;;;;;;;;;4992430;28;25053;-71
2023/09/25 10:48:54;;;;;;;6.60;3.08;;;;;;;;;;4981656;28;25048;-71
2023/09/25 10:51:21;;;;;;;5.18;2.85;;;;;;;;;;4984336;28;25086;-73
2023/09/25 10:53:48;;;;;;;7.70;2.75;;;;;;;;;;4970349;28;25066;-71
2023/09/25 10:56:14;;;;;;;4.22;3.00;;;;;;;;;;4976423;28;25155;-73
2023/09/25 10:58:40;;;;;;;4.90;2.60;;;;;;;;;;4985800;28;25100;-71
2023/09/25 11:01:06;;;;;;;5.47;2.53;;;;;;;;;;4987699;28;25057;-71
2023/09/25 11:03:37;;;;;;;5.30;2.35;;;;;;;;;;4984145;28;25072;-72
2023/09/25 11:06:03;;;;;;;6.05;2.42;;;;;;;;;;4980508;28;25077;-72
2023/09/25 11:08:34;;;;;;;6.10;2.92;;;;;;;;;;5002110;28;25131;-72
2023/09/25 11:11:00;;;;;;;5.93;2.08;;;;;;;;;;4990836;28;25054;-71
2023/09/25 11:13:26;;;;;;;7.35;3.22;;;;;;;;;;4964024;28;25154;-73
2023/09/25 11:15:52;;;;;;;6.68;2.38;;;;;;;;;;4989207;28;25172;-73
2023/09/25 11:18:19;;;;;;;5.72;2.75;;;;;;;;;;4989316;28;25162;-73
2023/09/25 11:20:45;;;;;;;4.80;2.33;;;;;;;;;;4985284;28;25099;-71
2023/09/25 11:23:14;;;;;;;9.38;3.45;;;;;;;;;;4987245;28;25153;-70
2023/09/25 11:25:47;;;;;;;7.72;2.38;;;;;;;;;;4981249;28;25059;-71
2023/09/25 11:28:14;;;;;;;4.80;2.60;;;;;;;;;;4989989;28;25066;-71
2023/09/25 11:30:41;;;;;;;4.40;2.83;;;;;;;;;;4989887;28;25073;-72
2023/09/25 11:33:08;;;;;;;4.47;2.30;;;;;;;;;;4988728;28;25068;-74
2023/09/25 11:35:37;;;;;;;5.05;2.42;;;;;;;;;;4985710;28;25088;-74
2023/09/25 11:38:12;;;;;;;3.47;2.55;;;;;;;;;;4984651;28;25178;-75
2023/09/25 11:40:38;;;;;;;6.43;2.67;;;;;;;;;;4976880;28;25097;-72
2023/09/25 11:43:04;;;;;;;6.35;2.30;;;;;;;;;;4983319;28;25080;-70
2023/09/25 11:45:30;;;;;;;9.10;2.70;;;;;;;;;;4983393;28;25069;-72
2023/09/25 11:47:56;;;;;;;4.97;2.60;;;;;;;;;;4967754;28;25139;-72
2023/09/25 11:50:22;;;;;;;4.43;2.42;;;;;;;;;;4989338;28;25077;-73
2023/09/25 11:52:48;;;;;;;6.63;3.00;;;;;;;;;;4981331;28;25053;-73
2023/09/25 11:55:15;;;;;;;6.22;3.03;;;;;;;;;;4979458;28;25150;-71
2023/09/25 11:57:44;;;;;;;4.43;2.45;;;;;;;;;;4988867;28;25061;-74
2023/09/25 12:00:12;;;;;;;5.93;3.25;;;;;;;;;;4977810;28;25071;-74
2023/09/25 12:02:38;;;;;;;6.13;2.75;;;;;;;;;;4968347;28;25069;-73
2023/09/25 12:05:04;;;;;;;4.22;2.70;;;;;;;;;;4985924;28;25133;-74
2023/09/25 12:07:31;;;;;;;3.92;2.63;;;;;;;;;;4987642;28;25078;-77
2023/09/25 12:09:57;;;;;;;4.43;2.63;;;;;;;;;;4981386;28;25157;-73
2023/09/25 12:12:23;;;;;;;5.40;2.55;;;;;;;;;;4984384;28;25065;-76
2023/09/25 12:14:51;;;;;;;4.07;2.58;;;;;;;;;;4987552;28;25125;-75
2023/09/25 12:17:18;;;;;;;6.63;2.83;;;;;;;;;;4984448;28;25061;-75
2023/09/25 12:19:45;;;;;;;6.40;3.10;;;;;;;;;;4980667;28;25063;-73
2023/09/25 12:22:11;;;;;;;5.93;2.72;;;;;;;;;;4982317;28;25125;-76
2023/09/25 12:24:38;;;;;;;4.65;2.60;;;;;;;;;;4975145;28;25085;-72
2023/09/25 12:27:04;;;;;;;9.80;3.60;;;;;;;;;;4978821;28;25120;-75
2023/09/25 12:29:30;;;;;;;8.20;3.03;;;;;;;;;;4983340;28;25101;-72
2023/09/25 12:31:56;;;;;;;6.38;2.75;;;;;;;;;;4977913;28;25139;-73
2023/09/25 12:34:22;;;;;;;6.32;3.28;;;;;;;;;;4985546;28;25066;-73
2023/09/25 12:36:48;;;;;;;6.03;3.17;;;;;;;;;;4979930;28;25045;-73
2023/09/25 12:39:16;;;;;;;6.18;2.85;;;;;;;;;;4978487;28;25103;-70
2023/09/25 12:41:42;;;;;;;5.68;2.30;;;;;;;;;;4983464;28;25067;-72
2023/09/25 12:44:11;;;;;;;3.70;2.72;;;;;;;;;;4979800;28;25075;-73
2023/09/25 12:46:37;;;;;;;7.07;2.70;;;;;;;;;;4975786;28;25108;-72
2023/09/25 12:49:04;;;;;;;6.38;3.03;;;;;;;;;;4977356;28;25060;-74
2023/09/25 12:51:30;;;;;;;7.15;3.13;;;;;;;;;;4962206;28;25054;-72
2023/09/25 12:53:56;;;;;;;9.40;3.72;;;;;;;;;;4981325;28;25068;-71
2023/09/25 12:56:22;;;;;;;8.85;3.20;;;;;;;;;;4952216;28;25065;-72
2023/09/25 12:58:49;;;;;;;6.65;2.90;;;;;;;;;;4990443;28;25078;-74
2023/09/25 13:01:15;;;;;;;4.78;3.22;;;;;;;;;;4985196;28;25108;-73
2023/09/25 13:03:41;;;;;;;6.55;3.28;;;;;;;;;;4981877;28;25071;-73
2023/09/25 13:06:07;;;;;;;5.82;3.67;;;;;;;;;;4976315;28;25075;-72
2023/09/25 13:08:33;;;;;;;4.85;3.00;;;;;;;;;;4965566;28;25089;-71
2023/09/25 13:10:59;;;;;;;6.13;3.40;;;;;;;;;;4977722;28;25132;-71
2023/09/25 13:13:25;;;;;;;5.20;3.30;;;;;;;;;;4981037;28;25079;-74
2023/09/25 13:15:51;;;;;;;7.38;2.53;;;;;;;;;;4984881;28;25067;-72
2023/09/25 13:18:17;;;;;;;10.57;3.15;;;;;;;;;;4974974;28;25078;-72
2023/09/25 13:20:43;;;;;;;7.75;3.40;;;;;;;;;;4989805;28;25067;-73
2023/09/25 13:23:09;;;;;;;8.20;3.00;;;;;;;;;;4991808;28;25119;-73
2023/09/25 13:25:36;;;;;;;8.45;3.30;;;;;;;;;;4981660;28;25070;-73
2023/09/25 13:28:02;;;;;;;9.02;3.78;;;;;;;;;;4986849;28;25067;-70
2023/09/25 13:30:28;;;;;;;7.22;3.55;;;;;;;;;;4976634;28;25063;-74
2023/09/25 13:32:54;;;;;;;5.35;3.60;;;;;;;;;;4977938;28;25061;-71
2023/09/25 13:35:22;;;;;;;6.55;3.50;;;;;;;;;;4980085;28;25078;-74
2023/09/25 13:37:48;;;;;;;9.40;3.80;;;;;;;;;;4971629;28;25131;-73
2023/09/25 13:40:16;;;;;;;8.18;3.88;;;;;;;;;;4988094;28;25071;-72
2023/09/25 13:42:42;;;;;;;8.98;4.35;;;;;;;;;;4981005;28;25138;-75
2023/09/25 13:45:12;;;;;;;12.77;4.35;;;;;;;;;;4973563;28;25066;-72
2023/09/25 13:47:38;;;;;;;9.15;4.68;;;;;;;;;;4975521;28;25072;-73
2023/09/25 13:50:05;;;;;;;7.07;4.07;;;;;;;;;;4973504;28;25064;-73
2023/09/25 13:52:31;;;;;;;12.25;4.65;;;;;;;;;;4979523;28;25070;-73
2023/09/25 13:54:57;;;;;;;6.70;3.35;;;;;;;;;;4979549;28;25074;-72
2023/09/25 13:57:23;;;;;;;7.40;4.57;;;;;;;;;;4966720;28;25098;-74
2023/09/25 13:59:50;;;;;;;13.32;5.22;;;;;;;;;;4989298;28;25070;-71
2023/09/25 14:02:16;;;;;;;8.63;4.25;;;;;;;;;;4985680;28;25137;-73
2023/09/25 14:04:42;;;;;;;7.28;3.85;;;;;;;;;;4978209;28;25066;-70
2023/09/25 14:07:08;;;;;;;9.40;4.38;;;;;;;;;;4979994;28;25072;-72
2023/09/25 14:09:34;;;;;;;4.75;2.72;;;;;;;;;;4983249;28;25074;-79
2023/09/25 14:12:01;;;;;;;9.95;3.30;;;;;;;;;;4987762;28;25140;-70
2023/09/25 14:14:40;;;;;;;6.35;2.75;;;;;;;;;;4977548;28;25129;-75
2023/09/25 14:17:06;;;;;;;3.83;2.58;;;;;;;;;;4971539;28;25060;-72
2023/09/25 14:19:32;;;;;;;4.15;2.80;;;;;;;;;;4983438;28;25136;-73
2023/09/25 14:21:58;;;;;;;7.72;3.38;;;;;;;;;;4987172;28;25057;-72
2023/09/25 14:24:24;;;;;;;11.02;3.00;;;;;;;;;;4989373;28;25061;-77
2023/09/25 14:26:51;;;;;;;6.97;2.88;;;;;;;;;;4983965;28;25089;-74
2023/09/25 14:29:17;;;;;;;6.10;2.75;;;;;;;;;;4989513;28;25071;-76
2023/09/25 14:31:43;;;;;;;7.95;3.13;;;;;;;;;;4983081;28;25078;-74
2023/09/25 14:34:09;;;;;;;8.40;3.03;;;;;;;;;;4970123;28;25094;-71
2023/09/25 14:36:35;;;;;;;6.13;2.50;;;;;;;;;;4988933;28;25052;-73
2023/09/25 14:39:02;;;;;;;4.95;2.70;;;;;;;;;;4984341;28;25078;-71
2023/09/25 14:41:28;;;;;;;6.43;2.70;;;;;;;;;;4991499;28;25058;-71